Time;durP1;ratioP1;P1;durP2;ratioP2;P2;SDS_P1;SDS_P2;PMS_P1;PMS_P2;Temp;Humidity;BMP_temperature;BMP_pressure;BME280_temperature;BME280_humidity;BME280_pressure;Samples;Min_cycle;Max_cycle;Signal;HPM_P1;HPM_P2
2021/12/14 00:00:26;;;;;;;11.02;6.90;;;22.80;58.10;;;;;;5097662;28;20044;-77
2021/12/14 00:02:53;;;;;;;12.00;7.53;;;22.80;57.80;;;;;;5097738;28;20060;-77
2021/12/14 00:05:24;;;;;;;11.63;7.45;;;22.70;58.00;;;;;;5097632;28;20065;-77
2021/12/14 00:07:51;;;;;;;13.70;7.90;;;22.70;58.20;;;;;;5097383;28;20040;-77
2021/12/14 00:13:06;;;;;;;12.18;7.65;;;22.50;58.60;;;;;;5097612;28;20102;-77
2021/12/14 00:15:33;;;;;;;12.43;7.70;;;22.60;58.30;;;;;;5097105;28;20072;-78
2021/12/14 00:18:04;;;;;;;12.70;8.18;;;22.60;58.20;;;;;;5097559;28;20036;-77
2021/12/14 00:20:50;;;;;;;9.25;6.22;;;22.60;58.30;;;;;;5097370;28;20040;-77
2021/12/14 00:25:54;;;;;;;10.35;6.95;;;22.60;57.90;;;;;;5097255;28;20043;-77
2021/12/14 00:28:26;;;;;;;12.77;7.97;;;22.70;58.10;;;;;;5096835;28;20055;-77
2021/12/14 00:30:56;;;;;;;10.10;7.35;;;22.80;57.90;;;;;;5096864;28;20076;-77
2021/12/14 00:33:26;;;;;;;11.88;7.65;;;22.70;57.80;;;;;;5097112;28;20071;-77
2021/12/14 00:35:52;;;;;;;14.13;7.95;;;22.70;57.80;;;;;;5097108;28;20033;-77
2021/12/14 00:38:24;;;;;;;9.02;6.10;;;22.70;58.00;;;;;;5096985;28;20067;-77
2021/12/14 00:40:58;;;;;;;13.20;8.05;;;22.70;58.10;;;;;;5096353;28;20049;-77
2021/12/14 00:43:25;;;;;;;11.90;8.10;;;22.60;57.80;;;;;;5096390;28;20075;-77
2021/12/14 00:45:52;;;;;;;12.20;6.68;;;22.50;57.70;;;;;;5096281;28;20066;-77
2021/12/14 00:48:20;;;;;;;11.23;7.45;;;22.60;57.80;;;;;;5096786;28;20127;-77
2021/12/14 00:50:53;;;;;;;12.30;7.55;;;22.50;57.70;;;;;;5096203;28;20040;-77
2021/12/14 00:53:19;;;;;;;11.32;7.95;;;22.60;57.80;;;;;;5096431;28;20051;-77
2021/12/14 00:55:50;;;;;;;11.32;7.65;;;22.50;57.80;;;;;;5095885;28;20141;-77
2021/12/14 00:58:17;;;;;;;11.45;7.57;;;22.40;57.80;;;;;;5096031;28;20127;-77
2021/12/14 01:00:52;;;;;;;14.98;8.20;;;22.40;57.80;;;;;;5096828;28;20044;-78
2021/12/14 01:03:20;;;;;;;10.88;6.70;;;22.30;58.20;;;;;;5095133;28;20062;-77
2021/12/14 01:05:49;;;;;;;13.93;7.53;;;22.50;57.90;;;;;;5096097;28;20045;-77
2021/12/14 01:08:20;;;;;;;14.20;8.23;;;22.40;58.00;;;;;;5096018;28;20104;-77
2021/12/14 01:11:03;;;;;;;12.68;7.78;;;22.60;57.60;;;;;;5096517;28;20108;-77
2021/12/14 01:13:34;;;;;;;10.05;7.70;;;22.50;57.80;;;;;;5096759;28;20060;-77
2021/12/14 01:16:30;;;;;;;12.45;7.40;;;22.50;57.80;;;;;;5095845;28;20051;-77
2021/12/14 01:19:12;;;;;;;11.75;7.68;;;22.40;57.90;;;;;;5095910;28;20040;-77
2021/12/14 01:24:52;;;;;;;14.00;7.63;;;22.60;57.50;;;;;;5095861;28;20055;-77
2021/12/14 01:27:14;;;;;;;17.60;8.50;;;22.50;57.40;;;;;;5096564;28;20079;-77
2021/12/14 01:29:42;;;;;;;11.95;7.80;;;22.60;57.40;;;;;;5096361;28;20134;-77
2021/12/14 01:32:09;;;;;;;13.60;8.43;;;22.70;57.20;;;;;;5095707;28;20044;-77
2021/12/14 01:34:37;;;;;;;13.70;8.30;;;22.60;57.20;;;;;;5095870;28;20044;-77
2021/12/14 01:37:09;;;;;;;12.45;7.68;;;22.60;57.10;;;;;;5095224;28;20049;-77
2021/12/14 01:42:21;;;;;;;12.07;8.13;;;22.50;57.30;;;;;;5096573;28;20041;-77
2021/12/14 01:45:06;;;;;;;14.43;9.13;;;22.40;57.10;;;;;;5095593;28;20043;-77
2021/12/14 01:47:54;;;;;;;12.43;8.10;;;22.40;57.20;;;;;;5095884;28;20036;-77
2021/12/14 01:50:48;;;;;;;17.27;8.40;;;22.30;57.20;;;;;;5095919;28;20047;-77
2021/12/14 01:53:28;;;;;;;14.43;8.15;;;22.40;57.30;;;;;;5095713;28;20040;-77
2021/12/14 01:55:59;;;;;;;14.30;8.40;;;22.30;57.50;;;;;;5095657;28;20044;-77
2021/12/14 01:58:37;;;;;;;13.65;8.32;;;22.30;57.50;;;;;;5095432;28;20088;-77
2021/12/14 02:01:11;;;;;;;12.45;8.15;;;22.20;57.50;;;;;;5095697;28;20043;-77
2021/12/14 02:03:44;;;;;;;14.18;8.65;;;22.30;57.80;;;;;;5095563;28;20070;-77
2021/12/14 02:06:16;;;;;;;15.30;7.93;;;22.30;57.50;;;;;;5095731;28;20051;-77
2021/12/14 02:08:43;;;;;;;13.00;9.13;;;22.30;57.40;;;;;;5095471;28;20044;-77
2021/12/14 02:11:13;;;;;;;12.23;7.97;;;22.20;57.30;;;;;;5095527;28;20036;-77
2021/12/14 02:13:46;;;;;;;14.00;9.00;;;22.20;57.40;;;;;;5096171;28;20055;-77
2021/12/14 02:16:20;;;;;;;15.40;9.48;;;22.20;57.30;;;;;;5099301;28;20040;-79
2021/12/14 02:18:53;;;;;;;14.23;8.98;;;22.20;57.20;;;;;;5098994;28;20043;-77
2021/12/14 02:21:20;;;;;;;13.07;9.15;;;22.20;57.30;;;;;;5099640;28;20098;-79
2021/12/14 02:23:50;;;;;;;12.25;7.50;;;22.20;57.00;;;;;;5099771;28;20040;-77
2021/12/14 02:26:21;;;;;;;12.43;8.50;;;22.30;57.10;;;;;;5098936;28;20108;-78
2021/12/14 02:28:50;;;;;;;12.30;8.45;;;22.30;56.80;;;;;;5098832;28;20104;-78
2021/12/14 02:31:19;;;;;;;14.57;7.40;;;22.30;56.80;;;;;;5098732;28;20052;-78
2021/12/14 02:33:49;;;;;;;17.73;9.48;;;22.40;56.80;;;;;;5099424;28;20040;-77
2021/12/14 02:36:24;;;;;;;15.38;7.82;;;22.30;56.70;;;;;;5098904;28;20067;-77
2021/12/14 02:39:03;;;;;;;16.05;8.88;;;22.20;56.80;;;;;;5099330;28;20049;-78
2021/12/14 02:41:33;;;;;;;13.43;7.90;;;22.20;56.70;;;;;;5098716;28;20051;-77
2021/12/14 02:44:01;;;;;;;15.23;8.30;;;22.30;56.90;;;;;;5099242;28;20044;-77
2021/12/14 02:46:36;;;;;;;13.88;9.02;;;22.20;56.70;;;;;;5098612;28;20036;-77
2021/12/14 02:49:08;;;;;;;13.80;8.57;;;22.20;56.70;;;;;;5081684;28;20060;-77
2021/12/14 02:51:40;;;;;;;13.88;8.60;;;22.10;56.90;;;;;;5099162;28;20040;-77
2021/12/14 02:54:14;;;;;;;13.57;8.05;;;22.00;56.90;;;;;;5098410;28;20073;-77
2021/12/14 02:56:43;;;;;;;14.18;8.82;;;22.00;57.00;;;;;;5098472;28;20097;-77
2021/12/14 02:59:14;;;;;;;16.40;9.32;;;22.00;56.80;;;;;;5098167;28;20055;-76
2021/12/14 03:01:44;;;;;;;18.20;8.73;;;22.00;56.70;;;;;;5098309;28;20055;-77
2021/12/14 03:04:13;;;;;;;12.00;8.55;;;22.10;56.90;;;;;;5098368;28;20048;-77
2021/12/14 03:06:50;;;;;;;15.05;8.98;;;22.00;56.80;;;;;;5098295;28;20055;-77
2021/12/14 03:09:55;;;;;;;13.32;7.90;;;22.00;56.80;;;;;;5081160;28;20036;-77
2021/12/14 03:12:16;;;;;;;17.58;9.70;;;22.10;56.90;;;;;;5098561;28;20036;-77
2021/12/14 03:14:51;;;;;;;17.77;9.27;;;22.00;56.70;;;;;;5098670;28;20036;-77
2021/12/14 03:17:18;;;;;;;15.00;8.88;;;22.00;56.60;;;;;;5097841;28;20044;-77
2021/12/14 03:19:56;;;;;;;15.50;8.55;;;22.10;56.70;;;;;;5097971;28;20046;-77
2021/12/14 03:22:30;;;;;;;16.25;8.45;;;22.00;56.70;;;;;;5098452;28;20104;-77
2021/12/14 03:24:59;;;;;;;12.82;8.20;;;22.10;56.50;;;;;;5097054;28;20104;-77
2021/12/14 03:27:26;;;;;;;15.23;8.50;;;22.20;56.40;;;;;;5098583;28;20048;-77
2021/12/14 03:29:52;;;;;;;14.35;9.10;;;22.20;56.10;;;;;;5097862;28;20056;-77
2021/12/14 03:32:20;;;;;;;15.02;7.95;;;22.20;55.80;;;;;;5097640;28;20063;-77
2021/12/14 03:34:47;;;;;;;13.52;7.85;;;22.40;55.90;;;;;;5097721;28;20094;-77
2021/12/14 03:37:22;;;;;;;14.27;7.80;;;22.30;55.90;;;;;;5098234;28;20053;-77
2021/12/14 03:39:54;;;;;;;19.95;8.98;;;22.40;55.80;;;;;;5097425;28;20043;-77
2021/12/14 03:42:34;;;;;;;12.88;8.27;;;22.30;55.90;;;;;;5097188;28;20071;-77
2021/12/14 03:45:05;;;;;;;13.50;8.70;;;22.30;56.20;;;;;;5097187;28;20045;-77
2021/12/14 03:47:39;;;;;;;14.90;8.60;;;22.20;56.30;;;;;;5097544;28;20103;-77
2021/12/14 03:50:16;;;;;;;13.75;8.00;;;22.20;56.30;;;;;;5097301;28;20040;-77
2021/12/14 03:52:42;;;;;;;15.35;7.90;;;22.20;56.30;;;;;;5097407;28;20066;-77
2021/12/14 03:55:38;;;;;;;12.30;6.97;;;22.10;56.30;;;;;;5097158;28;20108;-77
2021/12/14 03:58:11;;;;;;;13.25;7.00;;;22.20;56.30;;;;;;5097222;28;20028;-77
2021/12/14 04:00:47;;;;;;;14.23;8.00;;;22.10;56.40;;;;;;5097129;28;20036;-77
2021/12/14 04:03:15;;;;;;;10.63;7.88;;;22.20;56.10;;;;;;5097823;28;20044;-77
2021/12/14 04:05:57;;;;;;;11.32;7.32;;;22.20;56.30;;;;;;5096963;28;20033;-77
2021/12/14 04:08:26;;;;;;;12.93;6.55;;;22.20;56.00;;;;;;5097033;28;20100;-77
2021/12/14 04:10:54;;;;;;;15.15;6.97;;;22.20;56.00;;;;;;5096782;28;20040;-77
2021/12/14 04:13:24;;;;;;;12.20;7.80;;;22.30;56.20;;;;;;5096888;28;20036;-77
2021/12/14 04:15:54;;;;;;;11.60;7.88;;;22.30;56.00;;;;;;5096912;28;20071;-77
2021/12/14 04:18:21;;;;;;;14.07;8.10;;;22.20;55.90;;;;;;5096700;28;20112;-77
2021/12/14 04:20:47;;;;;;;17.92;9.15;;;22.30;56.10;;;;;;5097248;28;20048;-77
2021/12/14 04:23:19;;;;;;;13.40;7.80;;;22.30;55.80;;;;;;5097445;28;20104;-77
2021/12/14 04:25:47;;;;;;;13.13;7.22;;;22.30;55.80;;;;;;5097056;28;20054;-77
2021/12/14 04:28:18;;;;;;;12.80;8.65;;;22.30;56.10;;;;;;5096736;28;20036;-77
2021/12/14 04:30:45;;;;;;;13.63;7.85;;;22.30;55.90;;;;;;5096345;28;20056;-77
2021/12/14 04:33:17;;;;;;;13.70;8.45;;;22.40;55.80;;;;;;5096497;28;20071;-77
2021/12/14 04:35:46;;;;;;;11.75;8.13;;;22.40;55.80;;;;;;5096565;28;20040;-77
2021/12/14 04:38:21;;;;;;;17.17;8.88;;;22.40;55.70;;;;;;5096375;28;20036;-77
2021/12/14 04:52:12;;;;;;;11.32;7.30;;;22.30;55.90;;;;;;5096990;28;20037;-80
2021/12/14 04:54:46;;;;;;;15.55;8.02;;;22.20;56.30;;;;;;5096187;28;20051;-79
2021/12/14 04:57:21;;;;;;;12.88;8.32;;;22.20;56.40;;;;;;5096380;28;20044;-79
2021/12/14 04:59:49;;;;;;;12.57;7.07;;;22.10;55.60;;;;;;5096246;28;20070;-79
2021/12/14 05:02:21;;;;;;;11.10;7.53;;;22.20;53.60;;;;;;5095590;28;20048;-78
2021/12/14 05:05:15;;;;;;;12.77;7.43;;;22.20;56.30;;;;;;5095970;28;20037;-78
2021/12/14 05:09:20;;;;;;;13.52;8.23;;;22.30;55.80;;;;;;5078749;28;20109;-77
2021/12/14 05:11:01;;;;;;;13.98;9.27;;;22.30;53.60;;;;;;5095153;28;20070;-77
2021/12/14 05:13:32;;;;;;;14.05;8.52;;;22.10;56.10;;;;;;5095368;28;20036;-80
2021/12/14 05:15:58;;;;;;;12.40;8.32;;;22.10;56.60;;;;;;5095302;28;20029;-78
2021/12/14 05:18:25;;;;;;;14.20;8.00;;;22.20;59.30;;;;;;5095491;28;20068;-79
2021/12/14 05:20:52;;;;;;;13.85;6.85;;;22.70;61.30;;;;;;5095076;28;20092;-75
2021/12/14 05:23:30;;;;;;;12.52;7.18;;;23.00;64.70;;;;;;5095134;28;20063;-74
2021/12/14 05:25:57;;;;;;;11.13;7.63;;;23.30;61.00;;;;;;5095299;28;20071;-75
2021/12/14 05:28:26;;;;;;;12.15;7.65;;;23.40;60.40;;;;;;5095158;28;20040;-76
2021/12/14 05:30:57;;;;;;;9.75;6.65;;;23.40;54.50;;;;;;5094586;28;20060;-73
2021/12/14 05:33:36;;;;;;;12.82;9.00;;;23.40;52.00;;;;;;5095163;28;20042;-74
2021/12/14 05:36:24;;;;;;;13.30;9.15;;;23.30;49.70;;;;;;5095170;28;20035;-73
2021/12/14 05:39:18;;;;;;;14.68;9.93;;;23.10;49.30;;;;;;5094935;28;20036;-73
2021/12/14 05:44:44;;;;;;;15.32;9.50;;;22.70;50.10;;;;;;5095033;28;20041;-76
2021/12/14 05:47:17;;;;;;;12.93;9.48;;;22.60;51.00;;;;;;5094912;28;20063;-77
2021/12/14 05:50:05;;;;;;;14.32;10.23;;;22.60;51.70;;;;;;5098459;28;20041;-77
2021/12/14 05:52:32;;;;;;;15.63;10.02;;;22.40;52.00;;;;;;5098384;28;20091;-79
2021/12/14 05:55:12;;;;;;;17.13;10.38;;;22.50;52.60;;;;;;5098892;28;20078;-77
2021/12/14 05:57:39;;;;;;;17.42;9.90;;;22.40;53.00;;;;;;5098856;28;20074;-78
2021/12/14 06:00:09;;;;;;;15.32;8.98;;;22.50;53.40;;;;;;5098767;28;20040;-78
2021/12/14 06:02:44;;;;;;;15.88;10.35;;;22.30;53.80;;;;;;5099386;28;20093;-75
2021/12/14 06:05:15;;;;;;;16.67;10.75;;;22.40;53.70;;;;;;5092571;28;20040;-75
2021/12/14 06:07:41;;;;;;;19.38;11.57;;;22.20;53.70;;;;;;5078559;28;20055;-77
2021/12/14 06:10:09;;;;;;;20.17;11.25;;;22.10;54.20;;;;;;5078520;28;20108;-74
2021/12/14 06:12:40;;;;;;;17.23;10.60;;;22.00;56.10;;;;;;5078012;28;20110;-75
2021/12/14 06:15:14;;;;;;;21.52;11.32;;;22.00;56.50;;;;;;5078207;28;20048;-77
2021/12/14 06:17:41;;;;;;;17.73;10.98;;;22.00;56.90;;;;;;5078354;28;20060;-78
2021/12/14 06:20:24;;;;;;;20.60;12.85;;;21.90;57.00;;;;;;5078105;28;20056;-81
2021/12/14 06:22:55;;;;;;;21.55;11.60;;;22.00;57.80;;;;;;5078165;28;20041;-80
2021/12/14 06:25:48;;;;;;;21.25;10.82;;;21.90;58.30;;;;;;5078000;28;20104;-81
2021/12/14 06:28:23;;;;;;;18.90;11.27;;;21.90;58.60;;;;;;5078040;28;20052;-79
2021/12/14 06:30:54;;;;;;;17.92;10.15;;;22.00;58.50;;;;;;5096027;28;20052;-83
2021/12/14 06:33:21;;;;;;;21.38;12.07;;;21.90;59.10;;;;;;5097883;28;20055;-84
2021/12/14 06:35:54;;;;;;;18.38;10.40;;;21.80;59.00;;;;;;5097803;28;20037;-81
2021/12/14 06:38:30;;;;;;;16.92;9.90;;;21.90;59.80;;;;;;5097901;28;20051;-80
2021/12/14 06:41:18;;;;;;;8.63;5.95;;;21.90;60.00;;;;;;5097372;28;20053;-76
2021/12/14 06:43:58;;;;;;;13.45;6.47;;;22.20;53.80;;;;;;5092968;28;20044;-82
2021/12/14 06:46:33;;;;;;;13.35;9.13;;;22.50;52.50;;;;;;5095220;28;20040;-75
2021/12/14 06:49:13;;;;;;;17.73;11.30;;;22.70;52.30;;;;;;5096670;28;20055;-77
2021/12/14 06:51:48;;;;;;;22.92;12.10;;;22.80;61.10;;;;;;5096337;28;20104;-76
2021/12/14 06:54:31;;;;;;;20.77;12.30;;;22.90;60.60;;;;;;5091543;28;20056;-77
2021/12/14 06:57:06;;;;;;;19.65;11.55;;;22.80;58.90;;;;;;5097622;28;20048;-79
2021/12/14 06:59:47;;;;;;;22.23;12.32;;;22.50;58.70;;;;;;5081744;28;20033;-78
2021/12/14 07:02:26;;;;;;;19.20;11.55;;;22.50;58.80;;;;;;5093904;28;20037;-77
2021/12/14 07:05:22;;;;;;;17.13;10.80;;;22.30;59.20;;;;;;5086866;28;20097;-78
2021/12/14 07:07:51;;;;;;;21.65;12.10;;;22.30;59.00;;;;;;5119799;28;20044;-74
2021/12/14 07:10:19;;;;;;;19.15;10.95;;;22.20;60.00;;;;;;5096870;28;20052;-75
2021/12/14 07:12:46;;;;;;;19.60;10.75;;;22.30;60.70;;;;;;5097755;28;20041;-76
2021/12/14 07:15:25;;;;;;;18.25;10.50;;;22.20;60.80;;;;;;5097370;28;20041;-77
2021/12/14 07:18:01;;;;;;;20.27;11.88;;;22.10;61.20;;;;;;5098511;28;20076;-72
2021/12/14 07:20:38;;;;;;;23.38;11.55;;;22.20;61.70;;;;;;5098079;28;20037;-73
2021/12/14 07:23:20;;;;;;;21.92;11.70;;;22.10;62.50;;;;;;5097677;28;20075;-72
2021/12/14 07:26:01;;;;;;;19.65;11.43;;;22.10;62.50;;;;;;5097707;28;20052;-73
2021/12/14 07:28:33;;;;;;;19.35;11.68;;;22.10;62.70;;;;;;5097602;28;20041;-71
2021/12/14 07:31:03;;;;;;;23.55;11.00;;;22.00;63.00;;;;;;5096307;28;20056;-71
2021/12/14 07:33:33;;;;;;;15.98;9.95;;;22.00;63.00;;;;;;5097607;28;20032;-72
2021/12/14 07:36:05;;;;;;;20.73;10.32;;;22.00;64.00;;;;;;5097569;28;20048;-71
2021/12/14 07:38:38;;;;;;;19.85;11.60;;;22.00;63.40;;;;;;5097599;28;20046;-73
2021/12/14 07:41:10;;;;;;;21.88;11.68;;;21.80;63.40;;;;;;5097436;28;20071;-73
2021/12/14 07:43:45;;;;;;;20.45;11.30;;;21.90;63.90;;;;;;5097271;28;20049;-75
2021/12/14 07:46:22;;;;;;;15.25;10.05;;;21.90;63.90;;;;;;5097411;28;20048;-72
2021/12/14 07:48:52;;;;;;;23.00;11.32;;;21.80;64.30;;;;;;5097333;28;20157;-73
2021/12/14 07:51:20;;;;;;;17.00;9.93;;;21.90;64.00;;;;;;5096995;28;20740;-74
2021/12/14 07:53:54;;;;;;;19.42;10.88;;;21.90;64.60;;;;;;5096824;28;20047;-74
2021/12/14 07:56:28;;;;;;;20.33;9.90;;;21.70;63.20;;;;;;5097071;28;20040;-75
2021/12/14 07:58:56;;;;;;;19.55;10.65;;;21.70;64.90;;;;;;5097092;28;20040;-73
2021/12/14 08:01:23;;;;;;;19.23;10.18;;;21.70;64.80;;;;;;5096908;28;20037;-74
2021/12/14 08:03:59;;;;;;;15.57;9.68;;;21.70;64.60;;;;;;5096247;28;20126;-74
2021/12/14 08:06:25;;;;;;;18.45;9.52;;;21.80;65.20;;;;;;5096271;28;20055;-72
2021/12/14 08:08:54;;;;;;;18.38;10.15;;;22.00;64.70;;;;;;5096433;28;20044;-72
2021/12/14 08:14:19;;;;;;;16.92;9.57;;;22.00;63.50;;;;;;5095490;28;20037;-71
2021/12/14 08:16:52;;;;;;;17.58;10.85;;;22.10;64.00;;;;;;5096808;28;20040;-72
2021/12/14 08:19:31;;;;;;;18.83;10.35;;;22.00;62.60;;;;;;5096487;28;20048;-72
2021/12/14 08:22:00;;;;;;;13.90;6.40;;;22.00;59.80;;;;;;5096419;28;20040;-73
2021/12/14 08:24:27;;;;;;;9.68;4.85;;;21.90;62.40;;;;;;5094622;28;20029;-73
2021/12/14 08:26:57;;;;;;;17.20;10.25;;;22.00;58.40;;;;;;5096219;28;20051;-74
2021/12/14 08:29:29;;;;;;;22.65;11.02;;;22.20;52.70;;;;;;5095683;28;20050;-74
2021/12/14 08:32:06;;;;;;;16.05;8.48;;;22.20;50.00;;;;;;5096345;28;20052;-75
2021/12/14 08:34:41;;;;;;;14.75;10.13;;;22.40;48.60;;;;;;5096429;28;20066;-73
2021/12/14 08:37:25;;;;;;;20.58;12.48;;;22.50;43.50;;;;;;5096506;28;20055;-73
2021/12/14 08:40:06;;;;;;;17.13;12.45;;;22.20;48.70;;;;;;5096305;28;20040;-71
2021/12/14 08:42:47;;;;;;;12.90;7.03;;;22.10;40.50;;;;;;5096632;28;20041;-71
2021/12/14 08:45:25;;;;;;;19.58;12.20;;;22.00;49.70;;;;;;5095993;28;20133;-70
2021/12/14 08:48:14;;;;;;;10.85;5.97;;;22.00;44.90;;;;;;5096058;28;20067;-71
2021/12/14 08:51:16;;;;;;;16.58;8.13;;;22.00;47.20;;;;;;5096020;28;20079;-70
2021/12/14 08:53:49;;;;;;;15.65;8.05;;;22.20;39.20;;;;;;5096056;28;20036;-70
2021/12/14 08:56:19;;;;;;;17.13;12.27;;;22.40;40.20;;;;;;5096147;28;20044;-71
2021/12/14 08:58:46;;;;;;;12.02;7.72;;;22.50;49.20;;;;;;5094618;28;20033;-73
2021/12/14 09:01:25;;;;;;;13.75;7.07;;;22.60;39.90;;;;;;5094579;28;20046;-72
2021/12/14 09:04:00;;;;;;;13.43;7.25;;;22.70;42.20;;;;;;5076397;28;20067;-71
2021/12/14 09:06:31;;;;;;;16.77;10.43;;;22.80;41.70;;;;;;5074672;28;20040;-70
2021/12/14 09:09:03;;;;;;;14.13;8.93;;;22.90;47.70;;;;;;5074559;28;20037;-69
2021/12/14 09:11:33;;;;;;;12.90;6.50;;;22.90;38.70;;;;;;5075177;28;20033;-70
2021/12/14 09:14:00;;;;;;;15.05;9.18;;;23.00;38.40;;;;;;5074575;28;20052;-70
2021/12/14 09:16:30;;;;;;;11.75;7.53;;;23.10;37.40;;;;;;5075471;28;20036;-71
2021/12/14 09:19:08;;;;;;;16.00;9.38;;;23.10;34.70;;;;;;5075486;28;20109;-70
2021/12/14 09:21:39;;;;;;;2.58;2.38;;;23.10;38.40;;;;;;5075267;28;20065;-75
2021/12/14 09:24:10;;;;;;;19.90;9.60;;;23.10;45.10;;;;;;5077533;28;20052;-70
2021/12/14 09:26:41;;;;;;;17.73;10.15;;;23.10;44.60;;;;;;5079923;28;20143;-70
2021/12/14 09:29:11;;;;;;;16.42;8.77;;;23.20;44.10;;;;;;5079355;28;20044;-71
2021/12/14 09:31:39;;;;;;;3.65;2.17;;;23.10;45.20;;;;;;5079911;28;20045;-73
2021/12/14 09:34:09;;;;;;;15.52;9.93;;;23.10;46.30;;;;;;5079587;28;20087;-71
2021/12/14 09:36:35;;;;;;;18.77;9.98;;;23.20;43.20;;;;;;5079697;28;20029;-70
2021/12/14 09:39:13;;;;;;;15.60;10.38;;;23.10;43.10;;;;;;5079629;28;20041;-70
2021/12/14 09:41:41;;;;;;;14.88;9.45;;;23.00;44.70;;;;;;5079513;28;20052;-70
2021/12/14 09:44:11;;;;;;;18.75;10.18;;;22.80;46.40;;;;;;5084271;28;20040;-71
2021/12/14 09:46:38;;;;;;;18.40;10.85;;;22.70;46.90;;;;;;5099728;28;20104;-70
2021/12/14 09:49:09;;;;;;;18.60;10.60;;;22.80;47.80;;;;;;5099291;28;20079;-71
2021/12/14 09:51:46;;;;;;;16.33;10.82;;;22.60;49.00;;;;;;5099598;28;20048;-70
2021/12/14 09:54:17;;;;;;;12.45;5.95;;;22.70;49.00;;;;;;5099532;28;20128;-70
2021/12/14 09:56:48;;;;;;;10.48;6.80;;;22.70;47.50;;;;;;5099421;28;20047;-69
2021/12/14 09:59:15;;;;;;;11.85;7.18;;;22.80;39.40;;;;;;5099345;28;20100;-69
2021/12/14 10:01:46;;;;;;;9.60;7.22;;;23.00;40.10;;;;;;5099462;28;20051;-70
2021/12/14 10:04:18;;;;;;;15.07;7.47;;;23.00;39.60;;;;;;5099212;28;20050;-69
2021/12/14 10:06:45;;;;;;;9.30;5.60;;;23.10;38.30;;;;;;5099453;28;20067;-69
2021/12/14 10:09:16;;;;;;;12.85;6.50;;;23.20;37.70;;;;;;5099106;28;20052;-69
2021/12/14 10:14:37;;;;;;;10.88;6.22;;;23.50;38.80;;;;;;5099249;28;20041;-70
2021/12/14 10:17:07;;;;;;;13.43;7.63;;;23.50;40.80;;;;;;5099028;28;20064;-69
2021/12/14 10:19:35;;;;;;;15.32;9.82;;;23.50;46.80;;;;;;5098947;28;20058;-70
2021/12/14 10:22:13;;;;;;;16.40;10.13;;;23.50;47.00;;;;;;5099026;28;20048;-69
2021/12/14 10:24:40;;;;;;;14.40;9.65;;;23.50;47.00;;;;;;5098738;28;20070;-69
2021/12/14 10:27:16;;;;;;;12.02;7.80;;;23.20;50.90;;;;;;5098927;28;20041;-69
2021/12/14 10:29:43;;;;;;;8.75;5.95;;;23.20;43.60;;;;;;5098616;28;20044;-69
2021/12/14 10:32:19;;;;;;;10.73;5.55;;;23.50;47.10;;;;;;5098569;28;20074;-68
2021/12/14 10:34:51;;;;;;;12.57;6.93;;;23.80;47.30;;;;;;5098275;28;20063;-70
2021/12/14 10:37:24;;;;;;;10.50;8.37;;;23.90;49.80;;;;;;5098710;28;20133;-70
2021/12/14 10:45:26;;;;;;;13.73;8.82;;;24.20;52.30;;;;;;5098296;28;20048;-70
2021/12/14 10:47:53;;;;;;;14.25;8.95;;;23.90;52.60;;;;;;5098676;28;20074;-70
2021/12/14 10:50:23;;;;;;;13.70;8.82;;;23.80;53.70;;;;;;5098355;28;20055;-70
2021/12/14 10:52:49;;;;;;;14.82;8.15;;;23.80;53.60;;;;;;5098243;28;20629;-70
2021/12/14 10:55:42;;;;;;;18.00;9.23;;;23.70;54.50;;;;;;5098058;28;20040;-70
2021/12/14 10:58:10;;;;;;;17.25;9.00;;;23.90;55.80;;;;;;5098398;28;20040;-70
2021/12/14 11:00:51;;;;;;;16.20;9.85;;;24.10;60.80;;;;;;5097959;28;20033;-68
2021/12/14 11:03:24;;;;;;;12.05;5.47;;;24.60;63.60;;;;;;5097534;28;20095;-67
2021/12/14 11:05:56;;;;;;;10.15;7.50;;;25.00;62.80;;;;;;5098063;28;20044;-67
2021/12/14 11:11:37;;;;;;;14.07;9.48;;;25.00;51.80;;;;;;5096856;28;20047;-67
2021/12/14 11:14:07;;;;;;;16.17;9.60;;;24.80;51.30;;;;;;5097201;28;20032;-67
2021/12/14 11:19:46;;;;;;;16.55;9.20;;;24.40;52.70;;;;;;5097616;28;20052;-67
2021/12/14 11:22:29;;;;;;;13.55;9.18;;;24.40;53.30;;;;;;5097932;28;20037;-67
2021/12/14 11:24:57;;;;;;;;;;;24.60;51.20;;;;;;5098181;28;20051;-67
2021/12/14 11:27:49;;;;;;;13.55;7.50;;;25.00;50.60;;;;;;5097004;28;19928;-67
2021/12/14 11:30:23;;;;;;;15.20;8.85;;;25.10;50.10;;;;;;5097197;28;20099;-67
2021/12/14 11:33:26;;;;;;;19.08;9.38;;;25.40;49.40;;;;;;5097020;28;20064;-67
2021/12/14 11:36:13;;;;;;;14.77;8.73;;;25.40;48.90;;;;;;5096543;28;20044;-67
2021/12/14 11:38:39;;;;;;;15.52;10.00;;;25.40;49.40;;;;;;5097444;28;20040;-67
2021/12/14 11:41:22;;;;;;;16.05;8.55;;;25.30;49.50;;;;;;5096902;28;20087;-68
2021/12/14 11:44:14;;;;;;;17.73;10.40;;;25.30;50.10;;;;;;5097329;28;20051;-68
2021/12/14 11:50:15;;;;;;;12.10;7.25;;;25.00;50.10;;;;;;5097015;28;20044;-67
2021/12/14 11:52:42;;;;;;;14.93;8.93;;;24.70;50.50;;;;;;5097157;28;20087;-67
2021/12/14 11:55:38;;;;;;;19.77;10.48;;;24.60;49.90;;;;;;5096863;28;20050;-70
2021/12/14 11:58:24;;;;;;;15.32;10.18;;;24.50;51.30;;;;;;5097219;28;20033;-70
2021/12/14 12:00:56;;;;;;;14.57;8.63;;;24.20;52.50;;;;;;5097014;28;20096;-71
2021/12/14 12:03:44;;;;;;;17.27;10.00;;;23.90;53.30;;;;;;5096665;28;20051;-71
2021/12/14 12:09:32;;;;;;;17.40;9.70;;;23.60;54.20;;;;;;5096674;28;20846;-71
2021/12/14 12:12:07;;;;;;;15.85;9.10;;;23.60;55.40;;;;;;5096925;28;20053;-71
2021/12/14 12:14:39;;;;;;;17.45;9.70;;;23.40;55.60;;;;;;5096909;28;20044;-71
2021/12/14 12:17:49;;;;;;;19.65;9.05;;;23.30;56.20;;;;;;5096814;28;20822;-71
2021/12/14 12:20:52;;;;;;;15.35;10.57;;;23.20;56.80;;;;;;5095923;28;20051;-72
2021/12/14 12:23:22;;;;;;;12.35;9.30;;;23.30;59.20;;;;;;5096519;28;20051;-71
2021/12/14 12:25:51;;;;;;;19.90;12.30;;;23.80;55.80;;;;;;5096770;28;20092;-70
2021/12/14 12:28:33;;;;;;;18.75;11.25;;;23.80;55.00;;;;;;5096494;28;20040;-70
2021/12/14 12:31:10;;;;;;;17.30;11.43;;;23.60;55.40;;;;;;5096201;28;20056;-70
2021/12/14 12:33:38;;;;;;;19.00;11.00;;;23.50;55.80;;;;;;5096592;28;20037;-69
2021/12/14 12:36:26;;;;;;;19.00;10.98;;;23.40;56.50;;;;;;5096391;28;20072;-70
2021/12/14 12:38:58;;;;;;;16.70;10.95;;;23.40;56.30;;;;;;5096236;28;20076;-70
2021/12/14 12:41:46;;;;;;;19.73;11.20;;;23.30;56.40;;;;;;5096412;28;20059;-70
2021/12/14 12:44:18;;;;;;;20.60;11.98;;;23.10;57.30;;;;;;5095391;28;20051;-70
2021/12/14 12:46:54;;;;;;;20.63;12.70;;;23.00;59.00;;;;;;5095557;28;20494;-70
2021/12/14 12:49:32;;;;;;;19.40;10.93;;;23.00;58.60;;;;;;5095240;28;20037;-70
2021/12/14 12:52:01;;;;;;;19.55;10.15;;;23.00;58.60;;;;;;5096156;28;20052;-70
2021/12/14 12:54:42;;;;;;;18.67;10.50;;;23.00;57.90;;;;;;5095795;28;20036;-69
2021/12/14 12:57:38;;;;;;;20.90;10.38;;;23.30;57.00;;;;;;5096124;28;20100;-70
2021/12/14 13:00:19;;;;;;;19.10;11.50;;;23.20;56.80;;;;;;5095503;28;20104;-69
2021/12/14 13:02:50;;;;;;;16.52;8.50;;;23.20;57.20;;;;;;5096230;28;20906;-70
2021/12/14 13:05:20;;;;;;;16.90;10.13;;;23.20;57.60;;;;;;5095383;28;20040;-69
2021/12/14 13:07:55;;;;;;;18.17;9.77;;;23.10;57.30;;;;;;5096179;28;20040;-69
2021/12/14 13:10:44;;;;;;;15.25;9.23;;;23.30;57.20;;;;;;5094556;28;20063;-69
2021/12/14 13:13:18;;;;;;;20.13;9.70;;;23.30;57.40;;;;;;5093894;28;20036;-70
2021/12/14 13:15:55;;;;;;;16.52;9.25;;;23.40;57.20;;;;;;5094490;28;20104;-70
2021/12/14 13:18:32;;;;;;;16.92;10.10;;;23.50;57.20;;;;;;5094624;28;20048;-70
2021/12/14 13:21:16;;;;;;;20.88;12.27;;;23.50;56.70;;;;;;5094417;28;20040;-70
2021/12/14 13:23:51;;;;;;;17.83;11.38;;;23.50;56.50;;;;;;5094939;28;20041;-69
2021/12/14 13:26:19;;;;;;;17.17;9.55;;;23.50;57.00;;;;;;5095172;28;20041;-70
2021/12/14 13:28:45;;;;;;;19.08;9.52;;;23.40;57.10;;;;;;5095118;28;20055;-69
2021/12/14 13:31:31;;;;;;;19.35;11.13;;;23.40;57.10;;;;;;5094403;28;20048;-69
2021/12/14 13:33:59;;;;;;;19.42;10.85;;;23.40;57.10;;;;;;5095558;28;20047;-69
2021/12/14 13:36:25;;;;;;;20.60;11.15;;;23.50;57.00;;;;;;5095702;28;20068;-69
2021/12/14 13:38:51;;;;;;;22.63;11.25;;;23.40;56.80;;;;;;5095875;28;20049;-69
2021/12/14 13:41:55;;;;;;;17.58;10.93;;;23.40;57.20;;;;;;5095643;28;20071;-69
2021/12/14 13:44:22;;;;;;;14.88;9.10;;;23.30;57.10;;;;;;5095480;28;20056;-70
2021/12/14 13:46:48;;;;;;;21.23;10.98;;;23.40;57.20;;;;;;5094717;28;20100;-70
2021/12/14 13:49:14;;;;;;;17.38;10.07;;;23.50;57.00;;;;;;5095238;28;20040;-70
2021/12/14 13:51:41;;;;;;;19.75;10.80;;;23.40;57.10;;;;;;5095270;28;20064;-70
2021/12/14 13:54:08;;;;;;;20.67;10.63;;;23.40;56.90;;;;;;5094380;28;20040;-69
2021/12/14 13:56:37;;;;;;;21.10;11.50;;;23.50;56.90;;;;;;5095230;28;20037;-69